Time;durP1;ratioP1;P1;durP2;ratioP2;P2;SDS_P1;SDS_P2;PMS_P1;PMS_P2;Temp;Humidity;BMP_temperature;BMP_pressure;BME280_temperature;BME280_humidity;BME280_pressure;Samples;Min_cycle;Max_cycle;Signal;HPM_P1;HPM_P2
2022/06/07 00:02:13;;;;;;;4.43;4.00;;;13.80;99.90;;;;;;5077256;28;20189;-67
2022/06/07 00:04:39;;;;;;;5.40;4.55;;;13.80;99.90;;;;;;5077376;28;20189;-67
2022/06/07 00:07:06;;;;;;;5.25;4.75;;;13.70;99.90;;;;;;5075899;28;20627;-67
2022/06/07 00:09:32;;;;;;;5.43;4.82;;;13.80;99.90;;;;;;5077038;28;20193;-67
2022/06/07 00:11:58;;;;;;;5.47;4.55;;;13.80;99.90;;;;;;5076980;28;20204;-67
2022/06/07 00:14:24;;;;;;;5.63;3.92;;;13.90;99.90;;;;;;5075620;28;20193;-67
2022/06/07 00:16:51;;;;;;;6.75;5.35;;;13.90;99.90;;;;;;5077040;28;20201;-67
2022/06/07 00:19:17;;;;;;;5.15;4.65;;;13.70;99.90;;;;;;5076998;28;20225;-67
2022/06/07 00:21:43;;;;;;;5.18;4.38;;;13.60;99.90;;;;;;5077062;28;20197;-67
2022/06/07 00:24:09;;;;;;;7.90;5.05;;;13.50;99.90;;;;;;5076667;28;20169;-68
2022/06/07 00:26:38;;;;;;;5.13;4.55;;;13.50;99.90;;;;;;5075369;28;20173;-67
2022/06/07 00:29:06;;;;;;;6.63;5.22;;;13.40;99.90;;;;;;5077149;28;20266;-67
2022/06/07 00:31:36;;;;;;;4.47;3.97;;;13.40;99.90;;;;;;5074964;28;20201;-67
2022/06/07 00:34:04;;;;;;;5.78;3.67;;;13.40;99.90;;;;;;5077187;28;20178;-67
2022/06/07 00:36:30;;;;;;;5.15;4.65;;;13.30;99.90;;;;;;5076543;28;20642;-67
2022/06/07 00:38:56;;;;;;;6.47;4.13;;;13.20;99.90;;;;;;5076244;28;20256;-67
2022/06/07 00:41:21;;;;;;;5.10;4.60;;;13.10;99.90;;;;;;5074989;28;20217;-67
2022/06/07 00:44:20;;;;;;;4.57;4.13;;;13.10;99.90;;;;;;5076423;28;20176;-67
2022/06/07 00:46:46;;;;;;;5.63;4.28;;;13.10;99.90;;;;;;5067256;28;20186;-67
2022/06/07 00:49:15;;;;;;;4.97;4.18;;;13.10;99.90;;;;;;5076197;28;20170;-67
2022/06/07 00:51:44;;;;;;;6.60;4.60;;;13.10;99.90;;;;;;5076113;28;20277;-67
2022/06/07 00:54:09;;;;;;;4.72;3.95;;;13.00;99.90;;;;;;5074750;28;20212;-67
2022/06/07 00:56:35;;;;;;;6.25;4.50;;;13.00;99.90;;;;;;5076002;28;20201;-67
2022/06/07 00:59:03;;;;;;;5.63;4.70;;;13.00;99.90;;;;;;5075391;28;20180;-67
2022/06/07 01:01:31;;;;;;;5.00;4.22;;;13.10;99.90;;;;;;5074161;28;20198;-67
2022/06/07 01:03:56;;;;;;;5.07;4.57;;;13.00;99.90;;;;;;5074523;28;20178;-67
2022/06/07 01:11:51;;;;;;;5.32;4.78;;;12.90;99.90;;;;;;5075782;28;20572;-67
2022/06/07 01:14:16;;;;;;;5.65;5.10;;;12.90;99.90;;;;;;5075494;28;20197;-67
2022/06/07 01:16:42;;;;;;;6.60;5.30;;;12.90;99.90;;;;;;5075402;28;20182;-67
2022/06/07 01:19:08;;;;;;;6.57;5.43;;;12.80;99.90;;;;;;5074039;28;20174;-67
2022/06/07 01:21:36;;;;;;;6.43;5.65;;;12.80;99.90;;;;;;5075818;28;20277;-67
2022/06/07 01:24:03;;;;;;;7.22;5.85;;;12.80;99.90;;;;;;5075398;28;20219;-67
2022/06/07 01:26:29;;;;;;;5.85;5.32;;;12.70;99.90;;;;;;5074178;28;20181;-67
2022/06/07 01:28:55;;;;;;;6.43;5.30;;;12.60;99.90;;;;;;5075373;28;20166;-67
2022/06/07 01:31:21;;;;;;;6.40;5.60;;;12.60;99.90;;;;;;5075268;28;20208;-67
2022/06/07 01:33:47;;;;;;;7.50;5.28;;;12.60;99.90;;;;;;5075441;28;20249;-68
2022/06/07 01:36:16;;;;;;;6.30;5.35;;;12.60;99.90;;;;;;5075252;28;20219;-67
2022/06/07 01:38:45;;;;;;;5.80;4.80;;;12.50;99.90;;;;;;5075346;28;20227;-67
2022/06/07 01:43:58;;;;;;;6.03;5.38;;;12.30;99.90;;;;;;5075583;28;20161;-67
2022/06/07 01:46:24;;;;;;;6.63;5.07;;;12.30;99.90;;;;;;5073528;28;20185;-67
2022/06/07 01:48:50;;;;;;;7.45;5.32;;;12.10;99.90;;;;;;5075097;28;20174;-67
2022/06/07 01:51:17;;;;;;;5.38;4.88;;;12.00;99.90;;;;;;5075207;28;20284;-67
2022/06/07 01:53:43;;;;;;;8.95;5.50;;;12.00;99.90;;;;;;5073629;28;20182;-67
2022/06/07 01:56:15;;;;;;;6.07;5.13;;;11.90;99.90;;;;;;5075325;28;20524;-67
2022/06/07 01:58:43;;;;;;;7.93;5.22;;;11.90;99.90;;;;;;5074999;28;20674;-68
2022/06/07 02:01:11;;;;;;;9.05;5.65;;;12.00;99.90;;;;;;5074384;28;20208;-64
2022/06/07 02:03:36;;;;;;;5.70;5.13;;;11.90;99.90;;;;;;5075074;28;20177;-67
2022/06/07 02:06:06;;;;;;;5.38;4.88;;;11.90;99.90;;;;;;5074645;28;20170;-67
2022/06/07 02:08:36;;;;;;;6.63;5.22;;;11.90;99.90;;;;;;5074618;28;20217;-67
2022/06/07 02:11:11;;;;;;;6.07;5.07;;;11.80;99.90;;;;;;5074278;28;20664;-67
2022/06/07 02:13:38;;;;;;;7.50;4.93;;;11.90;99.90;;;;;;5073308;28;20213;-67
2022/06/07 02:16:04;;;;;;;10.38;5.65;;;11.90;99.90;;;;;;5074832;28;20197;-67
2022/06/07 02:18:31;;;;;;;7.20;4.97;;;11.90;99.90;;;;;;5074467;28;20188;-67
2022/06/07 02:20:57;;;;;;;7.75;5.72;;;11.90;99.90;;;;;;5072930;28;20286;-67
2022/06/07 02:23:31;;;;;;;7.22;6.18;;;11.90;99.90;;;;;;5073268;28;20638;-67
2022/06/07 02:26:01;;;;;;;6.60;5.90;;;11.90;99.90;;;;;;5073268;28;20260;-67
2022/06/07 02:28:30;;;;;;;5.43;4.90;;;11.80;99.90;;;;;;5074644;28;20227;-68
2022/06/07 02:30:58;;;;;;;7.35;5.88;;;11.80;99.90;;;;;;5073346;28;20205;-67
2022/06/07 02:33:26;;;;;;;7.28;5.35;;;11.80;99.90;;;;;;5073038;28;20181;-67
2022/06/07 02:35:52;;;;;;;7.37;5.70;;;11.70;99.90;;;;;;5073037;28;20231;-67
2022/06/07 02:38:19;;;;;;;8.20;5.85;;;11.70;99.90;;;;;;5074434;28;20220;-67
2022/06/07 02:40:47;;;;;;;6.90;5.95;;;11.70;99.90;;;;;;5074890;28;20250;-67
2022/06/07 02:43:12;;;;;;;7.10;6.13;;;11.70;99.90;;;;;;5078186;28;20695;-67
2022/06/07 02:45:38;;;;;;;6.40;5.43;;;11.60;99.90;;;;;;5075469;28;20248;-67
2022/06/07 02:48:06;;;;;;;6.53;5.83;;;11.60;99.90;;;;;;5075469;28;20169;-67
2022/06/07 02:50:32;;;;;;;6.50;5.80;;;11.60;99.90;;;;;;5075060;28;20177;-67
2022/06/07 02:52:57;;;;;;;6.68;5.93;;;11.60;99.90;;;;;;5075074;28;20185;-67
2022/06/07 02:55:24;;;;;;;10.93;6.70;;;11.60;99.90;;;;;;5075423;28;20178;-67
2022/06/07 02:57:50;;;;;;;8.47;6.43;;;11.50;99.90;;;;;;5074326;28;20692;-67
2022/06/07 03:00:17;;;;;;;7.33;6.40;;;11.50;99.90;;;;;;5073427;28;20686;-67
2022/06/07 03:02:43;;;;;;;8.73;6.10;;;11.50;99.90;;;;;;5074386;28;20213;-68
2022/06/07 03:05:12;;;;;;;6.43;5.63;;;11.50;99.90;;;;;;5073156;28;20192;-67
2022/06/07 03:07:41;;;;;;;7.93;5.45;;;11.50;99.90;;;;;;5073353;28;20590;-66
2022/06/07 03:10:09;;;;;;;8.23;6.57;;;11.40;99.90;;;;;;5074952;28;20231;-67
2022/06/07 03:12:36;;;;;;;8.02;6.10;;;11.40;99.90;;;;;;5073243;28;20236;-67
2022/06/07 03:15:02;;;;;;;7.53;6.30;;;11.30;99.90;;;;;;5072864;28;20200;-67
2022/06/07 03:17:27;;;;;;;8.52;7.13;;;11.20;99.90;;;;;;5073873;28;20665;-67
2022/06/07 03:19:53;;;;;;;7.10;6.05;;;11.20;99.90;;;;;;5074812;28;20201;-67
2022/06/07 03:22:19;;;;;;;8.07;6.67;;;11.20;99.90;;;;;;5077677;28;20189;-67
2022/06/07 03:24:45;;;;;;;7.10;6.00;;;11.20;99.90;;;;;;5079430;28;20174;-67
2022/06/07 03:27:12;;;;;;;7.67;5.80;;;11.10;99.90;;;;;;5080816;28;20169;-67
2022/06/07 03:29:38;;;;;;;5.90;5.30;;;11.00;99.90;;;;;;5079451;28;20211;-67
2022/06/07 03:32:06;;;;;;;6.20;5.17;;;11.00;99.90;;;;;;5080479;28;20541;-67
2022/06/07 03:34:33;;;;;;;5.30;4.80;;;10.90;99.90;;;;;;5080988;28;20169;-67
2022/06/07 03:36:59;;;;;;;5.32;4.72;;;10.80;99.90;;;;;;5081481;28;20175;-66
2022/06/07 03:39:25;;;;;;;6.13;5.27;;;10.80;99.90;;;;;;5078722;28;20296;-66
2022/06/07 03:41:51;;;;;;;7.60;5.57;;;10.90;99.90;;;;;;5078617;28;20656;-66
2022/06/07 03:44:18;;;;;;;8.47;6.33;;;10.80;99.90;;;;;;5079866;28;20170;-67
2022/06/07 03:46:45;;;;;;;8.47;6.57;;;10.90;99.90;;;;;;5078301;28;20173;-66
2022/06/07 03:49:12;;;;;;;7.73;6.27;;;10.90;99.90;;;;;;5080265;28;20238;-66
2022/06/07 03:51:39;;;;;;;8.23;6.00;;;10.90;99.90;;;;;;5078544;28;20190;-66
2022/06/07 03:54:05;;;;;;;6.77;5.53;;;10.80;99.90;;;;;;5080028;28;20161;-67
2022/06/07 03:56:32;;;;;;;9.77;5.83;;;10.90;99.90;;;;;;5078578;28;20201;-67
2022/06/07 03:58:58;;;;;;;7.77;6.20;;;10.90;99.90;;;;;;5079784;28;20166;-67
2022/06/07 04:01:26;;;;;;;7.63;4.87;;;10.90;99.90;;;;;;5079792;28;20205;-67
2022/06/07 04:03:55;;;;;;;6.33;5.03;;;11.00;99.90;;;;;;5079592;28;20545;-67
2022/06/07 04:06:27;;;;;;;6.63;5.20;;;11.00;99.90;;;;;;5080220;28;20181;-67
2022/06/07 04:08:53;;;;;;;6.90;4.97;;;11.10;99.90;;;;;;5079656;28;20579;-67
2022/06/07 04:11:22;;;;;;;6.03;4.50;;;11.20;99.90;;;;;;5079602;28;20614;-67
2022/06/07 04:13:49;;;;;;;5.63;4.73;;;11.30;99.90;;;;;;5079430;28;20188;-67
2022/06/07 04:16:18;;;;;;;6.30;4.87;;;11.40;99.90;;;;;;5079916;28;20169;-67
2022/06/07 04:18:44;;;;;;;5.40;4.63;;;11.40;99.90;;;;;;5079371;28;20638;-67
2022/06/07 04:21:11;;;;;;;7.27;5.17;;;11.50;99.90;;;;;;5079429;28;20211;-67
2022/06/07 04:23:37;;;;;;;7.60;4.60;;;11.60;99.90;;;;;;5079692;28;20198;-67
2022/06/07 04:26:11;;;;;;;5.53;4.90;;;11.70;99.90;;;;;;5079641;28;20169;-67
2022/06/07 04:28:38;;;;;;;7.47;4.80;;;11.70;99.90;;;;;;5080270;28;20154;-67
2022/06/07 04:31:10;;;;;;;6.20;4.40;;;11.70;99.90;;;;;;5078156;28;20221;-67
2022/06/07 04:33:36;;;;;;;7.63;4.60;;;11.80;99.90;;;;;;5077196;28;20162;-67
2022/06/07 04:36:03;;;;;;;5.30;4.17;;;11.90;99.90;;;;;;5076846;28;20536;-67
2022/06/07 04:38:29;;;;;;;4.77;4.33;;;12.00;99.90;;;;;;5077025;28;20572;-67
2022/06/07 04:40:55;;;;;;;6.07;4.57;;;12.10;99.90;;;;;;5076595;28;20208;-67
2022/06/07 04:43:21;;;;;;;8.10;4.60;;;12.20;99.90;;;;;;5076519;28;20554;-67
2022/06/07 04:45:48;;;;;;;5.40;4.63;;;12.20;99.90;;;;;;5076126;28;20234;-67
2022/06/07 04:48:15;;;;;;;6.37;5.00;;;12.30;99.90;;;;;;5075891;28;20243;-67
2022/06/07 04:50:41;;;;;;;7.77;4.20;;;12.50;99.90;;;;;;5074612;28;20243;-67
2022/06/07 04:53:07;;;;;;;6.47;3.97;;;12.60;99.90;;;;;;5075795;28;20566;-67
2022/06/07 04:55:33;;;;;;;8.25;3.85;;;12.70;99.90;;;;;;5075720;28;20638;-67
2022/06/07 04:57:58;;;;;;;5.78;4.20;;;12.80;99.90;;;;;;5075885;28;20177;-67
2022/06/07 05:00:24;;;;;;;6.55;4.13;;;13.00;99.90;;;;;;5075949;28;20197;-68
2022/06/07 05:02:50;;;;;;;8.40;3.72;;;13.10;99.90;;;;;;5075888;28;20251;-67
2022/06/07 05:05:17;;;;;;;3.88;3.40;;;13.20;99.90;;;;;;5074658;28;20170;-67
2022/06/07 05:07:43;;;;;;;5.78;3.55;;;13.40;99.90;;;;;;5075857;28;20265;-67
2022/06/07 05:10:12;;;;;;;9.57;4.00;;;13.50;99.90;;;;;;5075606;28;20613;-67
2022/06/07 05:12:38;;;;;;;4.80;3.67;;;13.60;99.90;;;;;;5075404;28;20194;-67
2022/06/07 05:15:06;;;;;;;4.60;3.20;;;13.70;99.90;;;;;;5075526;28;20212;-67
2022/06/07 05:17:32;;;;;;;6.75;3.40;;;13.80;99.90;;;;;;5075277;28;20645;-67
2022/06/07 05:19:58;;;;;;;8.13;3.40;;;13.90;99.90;;;;;;5075984;28;20295;-68
2022/06/07 05:22:26;;;;;;;5.13;3.70;;;14.00;99.90;;;;;;5075633;28;20190;-68
2022/06/07 05:24:52;;;;;;;4.50;3.30;;;14.10;99.90;;;;;;5074322;28;20545;-67
2022/06/07 05:27:21;;;;;;;4.80;3.28;;;14.20;99.90;;;;;;5074465;28;20173;-67
2022/06/07 05:29:53;;;;;;;5.03;3.00;;;14.30;99.90;;;;;;5075700;28;20169;-67
2022/06/07 05:32:19;;;;;;;3.20;2.90;;;14.40;99.90;;;;;;5075206;28;20662;-68
2022/06/07 05:34:45;;;;;;;3.63;2.88;;;14.50;99.90;;;;;;5075777;28;20634;-67
2022/06/07 05:37:20;;;;;;;5.15;2.72;;;14.70;99.90;;;;;;5075476;28;20170;-68
2022/06/07 05:39:46;;;;;;;4.32;2.90;;;14.80;99.90;;;;;;5075331;28;20205;-68
2022/06/07 05:42:14;;;;;;;3.13;2.80;;;14.90;99.90;;;;;;5075333;28;20202;-67
2022/06/07 05:44:40;;;;;;;4.90;3.08;;;14.90;99.90;;;;;;5075155;28;20573;-67
2022/06/07 05:47:07;;;;;;;8.38;3.25;;;14.90;99.90;;;;;;5074379;28;20196;-68
2022/06/07 05:49:33;;;;;;;5.63;2.67;;;14.90;99.90;;;;;;5075209;28;20226;-68
2022/06/07 05:52:00;;;;;;;3.75;2.78;;;15.00;99.90;;;;;;5075491;28;20257;-68
2022/06/07 05:54:28;;;;;;;3.90;2.88;;;15.00;99.90;;;;;;5075728;28;20658;-67
2022/06/07 05:56:54;;;;;;;4.32;2.83;;;15.10;99.90;;;;;;5075079;28;20688;-67
2022/06/07 05:59:20;;;;;;;6.15;2.63;;;15.20;99.90;;;;;;5073681;28;20186;-68
2022/06/07 06:01:46;;;;;;;3.28;2.58;;;15.30;99.90;;;;;;5075123;28;20651;-67
2022/06/07 06:04:12;;;;;;;5.18;2.60;;;15.40;99.90;;;;;;5074839;28;20550;-68
2022/06/07 06:06:38;;;;;;;4.57;2.67;;;15.40;99.90;;;;;;5074913;28;20194;-68
2022/06/07 06:11:50;;;;;;;4.13;2.55;;;15.50;99.90;;;;;;5075036;28;20196;-67
2022/06/07 06:14:17;;;;;;;5.70;2.75;;;15.50;99.90;;;;;;5073922;28;20193;-68
2022/06/07 06:16:42;;;;;;;6.95;2.65;;;15.60;99.90;;;;;;5075024;28;20174;-68
2022/06/07 06:19:08;;;;;;;6.38;2.42;;;15.60;99.90;;;;;;5075878;28;20576;-67
2022/06/07 06:21:43;;;;;;;5.00;2.83;;;15.70;99.90;;;;;;5075466;28;20620;-67
2022/06/07 06:24:10;;;;;;;4.43;2.67;;;15.70;99.90;;;;;;5073614;28;20201;-67
2022/06/07 06:26:38;;;;;;;3.50;2.70;;;15.90;99.90;;;;;;5074788;28;20174;-67
2022/06/07 06:29:04;;;;;;;3.53;2.50;;;16.00;99.90;;;;;;5074614;28;20165;-67
2022/06/07 06:31:30;;;;;;;4.00;2.45;;;16.10;99.90;;;;;;5074436;28;20194;-67
2022/06/07 06:33:56;;;;;;;4.65;2.90;;;16.10;99.90;;;;;;5074264;28;20230;-67
2022/06/07 06:36:26;;;;;;;5.15;2.53;;;16.20;99.90;;;;;;5074649;28;20578;-67
2022/06/07 06:38:53;;;;;;;3.78;2.55;;;16.20;99.90;;;;;;5074672;28;20235;-67
2022/06/07 06:41:21;;;;;;;6.70;2.85;;;16.30;99.90;;;;;;5074586;28;20284;-67
2022/06/07 06:43:49;;;;;;;3.10;2.20;;;16.30;99.90;;;;;;5074807;28;20165;-67
2022/06/07 06:46:19;;;;;;;6.15;2.22;;;16.30;99.90;;;;;;5072813;28;20173;-67
2022/06/07 06:48:45;;;;;;;7.10;2.55;;;16.20;99.90;;;;;;5072698;28;20201;-67
2022/06/07 06:51:14;;;;;;;4.93;2.60;;;16.20;99.90;;;;;;5074814;28;20654;-67
2022/06/07 06:53:44;;;;;;;3.90;2.70;;;16.20;99.90;;;;;;5074106;28;20169;-67
2022/06/07 06:56:15;;;;;;;3.63;2.80;;;16.30;99.90;;;;;;5074103;28;20638;-67
2022/06/07 06:58:42;;;;;;;5.90;2.67;;;16.30;99.90;;;;;;5073907;28;20243;-67
2022/06/07 07:01:11;;;;;;;2.50;2.30;;;16.30;99.90;;;;;;5072832;28;20239;-67
2022/06/07 07:03:39;;;;;;;5.32;2.47;;;16.40;99.90;;;;;;5074193;28;20663;-67
2022/06/07 07:06:07;;;;;;;5.80;2.65;;;16.40;99.90;;;;;;5074685;28;20167;-67
2022/06/07 07:08:35;;;;;;;3.60;2.30;;;16.60;99.90;;;;;;5074686;28;20255;-66
2022/06/07 07:11:20;;;;;;;4.22;2.33;;;16.70;99.90;;;;;;5074346;28;20219;-67
2022/06/07 07:13:47;;;;;;;2.10;1.90;;;16.70;99.90;;;;;;5072155;28;20276;-65
2022/06/07 07:16:16;;;;;;;5.85;2.28;;;16.80;99.90;;;;;;5073947;28;20162;-66
2022/06/07 07:18:42;;;;;;;5.30;2.40;;;16.90;99.90;;;;;;5072232;28;20184;-66
2022/06/07 07:21:13;;;;;;;3.58;2.38;;;16.80;99.90;;;;;;5072080;28;20217;-67
2022/06/07 07:23:39;;;;;;;4.78;2.35;;;16.90;99.90;;;;;;5073801;28;20150;-66
2022/06/07 07:26:07;;;;;;;4.60;2.53;;;16.90;99.90;;;;;;5073663;28;20181;-65
2022/06/07 07:28:35;;;;;;;3.50;2.20;;;17.00;99.90;;;;;;5073853;28;20165;-67
2022/06/07 07:31:03;;;;;;;2.97;2.17;;;17.00;99.90;;;;;;5074587;28;20212;-67
2022/06/07 07:33:28;;;;;;;6.40;2.38;;;17.10;99.90;;;;;;5072086;28;20182;-67
2022/06/07 07:35:55;;;;;;;3.42;2.13;;;17.20;99.90;;;;;;5073632;28;20226;-68
2022/06/07 07:38:21;;;;;;;2.70;2.30;;;17.30;99.90;;;;;;5073102;28;20250;-67
2022/06/07 07:40:47;;;;;;;5.88;2.15;;;17.40;99.90;;;;;;5072610;28;20512;-68
2022/06/07 07:43:13;;;;;;;4.38;2.35;;;17.40;99.90;;;;;;5071721;28;20181;-68
2022/06/07 07:45:39;;;;;;;2.55;2.35;;;17.40;99.90;;;;;;5072313;28;20267;-68
2022/06/07 07:48:05;;;;;;;4.43;2.10;;;17.40;99.90;;;;;;5072130;28;20173;-67
2022/06/07 07:50:30;;;;;;;2.13;1.92;;;17.50;99.90;;;;;;5073896;28;20162;-67
2022/06/07 07:52:59;;;;;;;7.05;2.30;;;17.50;99.90;;;;;;5073432;28;20162;-68
2022/06/07 07:55:26;;;;;;;3.72;2.22;;;17.60;99.90;;;;;;5073565;28;20181;-68
2022/06/07 07:57:52;;;;;;;3.42;2.13;;;17.60;99.90;;;;;;5091232;28;20192;-68
2022/06/07 08:00:18;;;;;;;3.65;2.05;;;17.70;99.90;;;;;;5092566;28;20189;-69
2022/06/07 08:02:44;;;;;;;4.15;2.00;;;17.80;99.90;;;;;;5093728;28;20193;-68
2022/06/07 08:05:10;;;;;;;2.95;1.80;;;17.90;99.90;;;;;;5092253;28;20664;-69
2022/06/07 08:07:36;;;;;;;3.25;1.70;;;18.00;99.90;;;;;;5094120;28;20525;-67
2022/06/07 08:10:04;;;;;;;4.07;1.98;;;18.10;99.90;;;;;;5096370;28;20255;-67
2022/06/07 08:12:31;;;;;;;2.90;1.90;;;18.20;99.90;;;;;;5096800;28;20204;-67
2022/06/07 08:14:57;;;;;;;3.63;2.15;;;18.20;99.90;;;;;;5097282;28;20692;-68
2022/06/07 08:17:22;;;;;;;2.85;1.95;;;18.10;99.90;;;;;;5097679;28;20177;-68
2022/06/07 08:19:48;;;;;;;2.13;1.83;;;18.00;99.90;;;;;;5096044;28;20390;-69
2022/06/07 08:22:14;;;;;;;4.03;2.00;;;18.10;99.90;;;;;;5095970;28;20669;-68
2022/06/07 08:24:40;;;;;;;3.80;2.13;;;18.00;99.90;;;;;;5095974;28;20173;-69
2022/06/07 08:27:05;;;;;;;2.20;2.00;;;18.00;99.90;;;;;;5097022;28;20181;-68
2022/06/07 08:29:32;;;;;;;2.83;2.08;;;18.10;99.90;;;;;;5095797;28;20173;-68
2022/06/07 08:31:58;;;;;;;2.10;1.90;;;18.20;99.90;;;;;;5097712;28;20684;-68
2022/06/07 08:39:54;;;;;;;1.90;1.80;;;18.80;99.90;;;;;;5097181;28;20191;-68
2022/06/07 08:42:28;;;;;;;4.18;2.25;;;19.00;99.90;;;;;;5096522;28;20193;-68
2022/06/07 08:45:06;;;;;;;4.55;2.00;;;19.00;99.90;;;;;;5095426;28;20223;-68
2022/06/07 08:47:52;;;;;;;3.38;1.90;;;18.90;99.90;;;;;;5095405;28;20268;-68
2022/06/07 08:50:28;;;;;;;2.28;1.90;;;18.80;99.90;;;;;;5097444;28;20246;-69
2022/06/07 08:52:59;;;;;;;5.95;1.90;;;18.90;99.90;;;;;;5096982;28;20197;-68
2022/06/07 08:55:41;;;;;;;1.77;1.63;;;18.90;99.90;;;;;;5095363;28;20174;-68
2022/06/07 08:58:23;;;;;;;2.50;1.88;;;19.10;99.90;;;;;;5097185;28;20169;-68
2022/06/07 09:00:57;;;;;;;1.98;1.83;;;19.20;99.90;;;;;;5094959;28;20658;-68
2022/06/07 09:03:44;;;;;;;2.95;1.70;;;19.40;99.90;;;;;;5095363;28;20222;-68
2022/06/07 09:06:26;;;;;;;3.53;1.70;;;19.40;99.90;;;;;;5096535;28;20185;-68
2022/06/07 09:08:57;;;;;;;3.20;1.70;;;19.50;99.90;;;;;;5095011;28;20645;-67
2022/06/07 09:12:16;;;;;;;2.85;1.80;;;19.70;99.90;;;;;;5094653;28;20205;-67
2022/06/07 09:14:55;;;;;;;3.00;1.70;;;19.50;99.90;;;;;;5086886;28;20249;-68
2022/06/07 09:17:55;;;;;;;2.05;1.60;;;19.40;99.90;;;;;;5095992;28;20160;-68
2022/06/07 09:20:41;;;;;;;3.95;1.85;;;19.60;99.90;;;;;;5095723;28;20207;-68
2022/06/07 09:23:42;;;;;;;4.50;2.10;;;19.40;99.90;;;;;;5096608;28;20154;-68
2022/06/07 09:26:17;;;;;;;5.25;2.15;;;19.10;99.90;;;;;;5096028;28;20180;-66
2022/06/07 09:28:47;;;;;;;3.97;2.05;;;18.80;99.90;;;;;;5096083;28;20157;-67
2022/06/07 09:31:17;;;;;;;4.00;1.75;;;18.70;99.90;;;;;;5096278;28;20710;-67
2022/06/07 09:33:51;;;;;;;4.82;2.08;;;18.70;99.90;;;;;;5094905;28;20185;-67
2022/06/07 09:36:28;;;;;;;6.32;2.38;;;18.60;99.90;;;;;;5096013;28;20617;-67
2022/06/07 09:38:58;;;;;;;4.63;1.92;;;18.60;99.90;;;;;;5095507;28;20214;-67
2022/06/07 09:41:38;;;;;;;3.80;2.10;;;18.80;99.90;;;;;;5095203;28;20204;-67
2022/06/07 09:44:15;;;;;;;5.65;1.80;;;19.10;99.90;;;;;;5094181;28;20181;-67
2022/06/07 09:46:44;;;;;;;3.75;1.80;;;19.40;99.90;;;;;;5095360;28;20633;-67
2022/06/07 09:49:41;;;;;;;3.72;1.90;;;19.60;99.90;;;;;;5095194;28;20228;-67
2022/06/07 09:52:20;;;;;;;2.17;1.60;;;20.10;99.90;;;;;;5095316;28;20197;-67
2022/06/07 09:54:49;;;;;;;3.65;2.20;;;20.10;99.90;;;;;;5095491;28;20168;-67
2022/06/07 09:57:23;;;;;;;3.25;1.92;;;19.80;99.90;;;;;;5094859;28;20181;-67
2022/06/07 09:59:58;;;;;;;4.07;2.10;;;19.50;99.90;;;;;;5095096;28;20193;-67
2022/06/07 10:02:58;;;;;;;5.65;1.92;;;19.40;99.90;;;;;;5093626;28;20200;-67
2022/06/07 10:05:57;;;;;;;3.33;2.10;;;19.20;99.90;;;;;;5095238;28;20551;-67
2022/06/07 10:08:43;;;;;;;3.65;1.88;;;19.00;99.90;;;;;;5094729;28;20196;-67
2022/06/07 10:11:25;;;;;;;4.28;1.80;;;18.90;99.90;;;;;;5093306;28;20209;-67
2022/06/07 10:13:57;;;;;;;4.43;1.92;;;18.80;99.90;;;;;;5094712;28;20181;-68
2022/06/07 10:16:35;;;;;;;3.58;2.17;;;18.80;99.90;;;;;;5094870;28;20185;-67
2022/06/07 10:19:01;;;;;;;3.47;2.00;;;18.80;99.90;;;;;;5094609;28;20200;-67
2022/06/07 10:21:48;;;;;;;5.22;1.90;;;18.80;99.90;;;;;;5093324;28;20216;-67
2022/06/07 10:24:39;;;;;;;3.03;1.90;;;18.90;99.90;;;;;;5094850;28;20180;-68
2022/06/07 10:27:30;;;;;;;2.03;1.83;;;19.00;99.90;;;;;;5082853;28;20216;-67
2022/06/07 10:30:07;;;;;;;2.20;2.00;;;19.00;99.90;;;;;;5075594;28;20166;-67
2022/06/07 10:32:40;;;;;;;3.58;2.35;;;19.20;99.90;;;;;;5074340;28;20559;-67
2022/06/07 10:35:05;;;;;;;3.80;1.77;;;19.20;99.90;;;;;;5073583;28;20173;-68
2022/06/07 10:37:48;;;;;;;2.40;2.20;;;19.40;99.90;;;;;;5074953;28;20538;-67
2022/06/07 10:40:38;;;;;;;2.70;1.83;;;19.20;99.90;;;;;;5074824;28;20197;-67
2022/06/07 10:43:20;;;;;;;3.20;1.85;;;19.00;99.90;;;;;;5073959;28;20162;-68
2022/06/07 10:45:47;;;;;;;3.97;1.80;;;19.10;99.90;;;;;;5074436;28;20154;-67
2022/06/07 10:48:33;;;;;;;5.03;2.00;;;19.30;99.90;;;;;;5074748;28;20238;-68
2022/06/07 10:54:10;;;;;;;2.22;1.73;;;19.70;99.90;;;;;;5074392;28;20279;-68
2022/06/07 10:56:42;;;;;;;4.93;2.58;;;19.90;99.90;;;;;;5074116;28;20187;-67
2022/06/07 10:59:27;;;;;;;3.08;1.95;;;19.90;99.90;;;;;;5072900;28;20177;-68
2022/06/07 11:02:24;;;;;;;5.10;2.40;;;20.20;99.90;;;;;;5074382;28;20233;-68
2022/06/07 11:10:40;;;;;;;2.35;1.70;;;19.80;99.90;;;;;;5074464;28;20173;-67
2022/06/07 11:13:50;;;;;;;3.58;1.73;;;19.70;99.90;;;;;;5073554;28;20173;-66
2022/06/07 11:16:31;;;;;;;2.17;1.80;;;20.00;99.90;;;;;;5052050;28;20201;-67
2022/06/07 11:19:01;;;;;;;4.65;1.92;;;20.10;99.90;;;;;;5035030;28;20265;-66
2022/06/07 11:21:42;;;;;;;5.10;2.08;;;20.20;99.90;;;;;;5064288;28;20222;-66
2022/06/07 11:24:18;;;;;;;3.25;1.90;;;20.30;99.90;;;;;;5072235;28;20268;-66
2022/06/07 11:26:52;;;;;;;3.78;1.67;;;20.50;99.90;;;;;;5073123;28;20177;-66
2022/06/07 11:29:20;;;;;;;3.00;1.80;;;20.50;99.90;;;;;;5073422;28;20177;-66
2022/06/07 11:31:46;;;;;;;5.55;2.00;;;20.50;99.90;;;;;;5073226;28;20246;-66
2022/06/07 11:34:37;;;;;;;4.97;2.08;;;20.70;99.90;;;;;;5073382;28;20219;-66
2022/06/07 11:37:15;;;;;;;3.53;1.90;;;20.70;99.90;;;;;;5073823;28;20165;-66
2022/06/07 11:39:40;;;;;;;5.55;2.10;;;20.70;99.90;;;;;;5072038;28;20165;-66
2022/06/07 11:42:21;;;;;;;2.08;1.73;;;20.70;99.90;;;;;;5073040;28;20189;-67
2022/06/07 11:45:15;;;;;;;2.60;2.15;;;20.90;99.90;;;;;;5077679;28;20161;-66
2022/06/07 11:47:44;;;;;;;2.90;1.50;;;21.30;99.90;;;;;;5076204;28;20162;-66
2022/06/07 11:50:38;;;;;;;3.03;1.70;;;21.60;99.90;;;;;;5077688;28;20170;-66
2022/06/07 11:53:22;;;;;;;1.77;1.50;;;21.70;99.90;;;;;;5078012;28;20227;-67
2022/06/07 11:55:53;;;;;;;2.47;1.65;;;21.20;99.90;;;;;;5077626;28;20237;-66
2022/06/07 11:58:53;;;;;;;1.88;1.70;;;20.80;99.90;;;;;;5077159;28;20163;-66
2022/06/07 12:01:38;;;;;;;3.38;1.70;;;20.80;99.90;;;;;;5077145;28;20204;-66
2022/06/07 12:04:45;;;;;;;2.50;1.50;;;21.30;99.90;;;;;;5075888;28;20166;-66
2022/06/07 12:07:39;;;;;;;1.80;1.65;;;21.90;99.90;;;;;;5071351;28;20272;-66
2022/06/07 12:10:30;;;;;;;4.55;2.10;;;21.90;99.90;;;;;;5077355;28;20205;-65
2022/06/07 12:13:01;;;;;;;4.07;1.70;;;21.90;99.90;;;;;;5075920;28;20176;-66
2022/06/07 12:15:37;;;;;;;2.60;1.73;;;22.00;99.90;;;;;;5076807;28;20674;-66
2022/06/07 12:18:15;;;;;;;3.50;1.95;;;21.70;99.90;;;;;;5077288;28;20557;-66
2022/06/07 12:20:41;;;;;;;4.30;1.70;;;21.30;99.90;;;;;;5077411;28;20189;-66
2022/06/07 12:23:29;;;;;;;5.80;1.92;;;21.10;99.90;;;;;;5077217;28;20170;-66
2022/06/07 12:25:58;;;;;;;5.03;1.77;;;20.80;99.90;;;;;;5077854;28;20237;-65
2022/06/07 12:28:32;;;;;;;2.15;1.75;;;20.80;99.90;;;;;;5076991;28;20173;-65
2022/06/07 12:31:10;;;;;;;5.18;2.00;;;20.90;99.90;;;;;;5076147;28;20209;-65
2022/06/07 12:33:35;;;;;;;2.67;1.90;;;21.00;99.90;;;;;;5078001;28;20193;-67
2022/06/07 12:36:25;;;;;;;2.92;1.77;;;21.10;99.90;;;;;;5077967;28;20180;-67
2022/06/07 12:38:51;;;;;;;3.05;1.83;;;21.20;99.90;;;;;;5076465;28;20272;-67
2022/06/07 12:41:22;;;;;;;1.92;1.75;;;21.10;99.90;;;;;;5076905;28;20236;-67
2022/06/07 12:43:52;;;;;;;2.45;1.90;;;21.00;99.90;;;;;;5077213;28;20186;-67
2022/06/07 12:46:24;;;;;;;6.93;2.35;;;20.80;99.90;;;;;;5075391;28;20215;-67
2022/06/07 12:48:52;;;;;;;3.97;1.80;;;20.80;99.90;;;;;;5075652;28;20308;-67
2022/06/07 12:51:36;;;;;;;5.25;2.05;;;20.70;99.90;;;;;;5076764;28;20685;-67
2022/06/07 12:54:19;;;;;;;4.18;1.83;;;20.60;99.90;;;;;;5074685;28;20241;-67
2022/06/07 12:56:46;;;;;;;5.25;2.03;;;20.50;99.90;;;;;;5075000;28;20669;-66
2022/06/07 12:59:22;;;;;;;4.50;1.70;;;20.50;99.90;;;;;;5076467;28;20627;-67
2022/06/07 13:01:50;;;;;;;5.03;1.95;;;20.30;99.90;;;;;;5075004;28;20333;-67
2022/06/07 13:04:31;;;;;;;3.47;1.90;;;20.20;99.90;;;;;;5076132;28;20173;-67
2022/06/07 13:07:23;;;;;;;3.10;2.00;;;20.20;99.90;;;;;;5076229;28;20241;-68
2022/06/07 13:09:53;;;;;;;2.17;1.80;;;20.20;99.90;;;;;;5075783;28;20221;-67
2022/06/07 13:12:31;;;;;;;4.80;1.90;;;20.10;99.90;;;;;;5076171;28;20201;-67
2022/06/07 13:14:59;;;;;;;2.25;2.05;;;20.10;99.90;;;;;;5075989;28;20654;-67
2022/06/07 13:17:31;;;;;;;2.40;1.80;;;19.90;99.90;;;;;;5076202;28;20604;-67
2022/06/07 13:19:59;;;;;;;10.70;2.08;;;19.70;99.90;;;;;;5074477;28;20202;-67
2022/06/07 13:22:27;;;;;;;2.13;1.90;;;19.60;99.90;;;;;;5076107;28;20254;-67
2022/06/07 13:25:03;;;;;;;3.83;2.00;;;19.50;99.90;;;;;;5074686;28;20181;-67
2022/06/07 13:27:41;;;;;;;2.55;1.83;;;19.30;99.90;;;;;;5075560;28;20658;-67
2022/06/07 13:30:32;;;;;;;2.67;2.25;;;19.20;99.90;;;;;;5075721;28;20166;-67
2022/06/07 13:33:14;;;;;;;3.70;2.00;;;19.10;99.90;;;;;;5075525;28;20161;-67